Malvern, United Kingdom
Current Conditions -  °F | °C
As of 12:50 PM on Wednesday 26 Nov 2014 (Local Time) from EGBJ Reporting Station
Haze Haze  
Wind Chill:   Ceiling: 300
Heat Index:   Visibility: 1.5mi
Dew Point:   Wind: 0mph
Humidity: 100%   Direction: NA
Pressure: 29.85"   Gusts: NA
Location:  52.05°N, 2.32°W
Report Text: EGBJ 261250Z 00000KT 2500 BR BKN003 OVC005 08/08 Q1011
Loading
Personal Weather Stations






























Interactive Weather Map New forecast layout! Learn more

10-Day Weather Forecast

Advertisements
Track Severe Weather on mobile